sensor_id;sensor_type;location;lat;lon;timestamp;P1;durP1;ratioP1;P2;durP2;ratioP2
74620;SDS011;64861;47.546;19.254;2023-02-23T00:01:09;8.63;;;3.08;;
74620;SDS011;64861;47.546;19.254;2023-02-23T00:03:42;7.47;;;2.78;;
74620;SDS011;64861;47.546;19.254;2023-02-23T00:06:08;7.88;;;3.08;;
74620;SDS011;64861;47.546;19.254;2023-02-23T00:08:35;7.82;;;2.85;;
74620;SDS011;64861;47.546;19.254;2023-02-23T00:11:05;6.72;;;2.50;;
74620;SDS011;64861;47.546;19.254;2023-02-23T00:13:32;8.43;;;2.83;;
74620;SDS011;64861;47.546;19.254;2023-02-23T00:16:08;7.97;;;2.70;;
74620;SDS011;64861;47.546;19.254;2023-02-23T00:18:37;7.57;;;2.50;;
74620;SDS011;64861;47.546;19.254;2023-02-23T00:21:22;6.57;;;2.83;;
74620;SDS011;64861;47.546;19.254;2023-02-23T00:23:53;8.65;;;3.10;;
74620;SDS011;64861;47.546;19.254;2023-02-23T00:26:22;6.82;;;2.45;;
74620;SDS011;64861;47.546;19.254;2023-02-23T00:28:49;6.18;;;2.22;;
74620;SDS011;64861;47.546;19.254;2023-02-23T00:31:15;6.90;;;2.70;;
74620;SDS011;64861;47.546;19.254;2023-02-23T00:33:40;5.70;;;2.50;;
74620;SDS011;64861;47.546;19.254;2023-02-23T00:36:11;6.47;;;2.63;;
74620;SDS011;64861;47.546;19.254;2023-02-23T00:38:39;6.55;;;2.75;;
74620;SDS011;64861;47.546;19.254;2023-02-23T00:41:10;8.30;;;2.80;;
74620;SDS011;64861;47.546;19.254;2023-02-23T00:43:39;8.38;;;2.80;;
74620;SDS011;64861;47.546;19.254;2023-02-23T00:46:24;6.53;;;2.65;;
74620;SDS011;64861;47.546;19.254;2023-02-23T00:48:52;8.57;;;2.78;;
74620;SDS011;64861;47.546;19.254;2023-02-23T00:51:20;5.72;;;2.50;;
74620;SDS011;64861;47.546;19.254;2023-02-23T00:53:46;5.93;;;2.22;;
74620;SDS011;64861;47.546;19.254;2023-02-23T00:56:13;7.85;;;2.90;;
74620;SDS011;64861;47.546;19.254;2023-02-23T00:58:39;6.85;;;2.50;;
74620;SDS011;64861;47.546;19.254;2023-02-23T01:01:09;6.70;;;2.60;;
74620;SDS011;64861;47.546;19.254;2023-02-23T01:03:37;6.20;;;2.65;;
74620;SDS011;64861;47.546;19.254;2023-02-23T01:06:05;7.00;;;2.38;;
74620;SDS011;64861;47.546;19.254;2023-02-23T01:08:34;6.03;;;2.38;;
74620;SDS011;64861;47.546;19.254;2023-02-23T01:11:10;6.38;;;2.50;;
74620;SDS011;64861;47.546;19.254;2023-02-23T01:13:39;5.97;;;2.50;;
74620;SDS011;64861;47.546;19.254;2023-02-23T01:16:07;6.07;;;2.30;;
74620;SDS011;64861;47.546;19.254;2023-02-23T01:18:34;6.40;;;2.53;;
74620;SDS011;64861;47.546;19.254;2023-02-23T01:21:04;6.40;;;2.38;;
74620;SDS011;64861;47.546;19.254;2023-02-23T01:23:38;7.47;;;2.50;;
74620;SDS011;64861;47.546;19.254;2023-02-23T01:26:03;8.13;;;2.42;;
74620;SDS011;64861;47.546;19.254;2023-02-23T01:28:29;6.57;;;2.70;;
74620;SDS011;64861;47.546;19.254;2023-02-23T01:30:54;6.45;;;2.60;;
74620;SDS011;64861;47.546;19.254;2023-02-23T01:33:19;6.60;;;2.38;;
74620;SDS011;64861;47.546;19.254;2023-02-23T01:35:55;5.72;;;2.58;;
74620;SDS011;64861;47.546;19.254;2023-02-23T01:38:21;5.80;;;2.63;;
74620;SDS011;64861;47.546;19.254;2023-02-23T01:40:46;6.32;;;2.70;;
74620;SDS011;64861;47.546;19.254;2023-02-23T01:43:14;6.80;;;2.30;;
74620;SDS011;64861;47.546;19.254;2023-02-23T01:45:45;7.47;;;3.03;;
74620;SDS011;64861;47.546;19.254;2023-02-23T01:48:14;5.45;;;2.38;;
74620;SDS011;64861;47.546;19.254;2023-02-23T01:50:45;5.57;;;2.00;;
74620;SDS011;64861;47.546;19.254;2023-02-23T01:53:16;5.63;;;2.17;;
74620;SDS011;64861;47.546;19.254;2023-02-23T01:55:45;6.95;;;2.33;;
74620;SDS011;64861;47.546;19.254;2023-02-23T01:58:14;6.22;;;2.40;;
74620;SDS011;64861;47.546;19.254;2023-02-23T02:03:25;6.65;;;2.40;;
74620;SDS011;64861;47.546;19.254;2023-02-23T02:05:51;5.97;;;2.35;;
74620;SDS011;64861;47.546;19.254;2023-02-23T02:08:18;5.72;;;2.42;;
74620;SDS011;64861;47.546;19.254;2023-02-23T02:10:47;7.07;;;2.40;;
74620;SDS011;64861;47.546;19.254;2023-02-23T02:13:20;4.63;;;2.00;;
74620;SDS011;64861;47.546;19.254;2023-02-23T02:18:32;6.25;;;2.20;;
74620;SDS011;64861;47.546;19.254;2023-02-23T02:24:15;5.50;;;2.03;;
74620;SDS011;64861;47.546;19.254;2023-02-23T02:35:09;5.75;;;2.47;;
74620;SDS011;64861;47.546;19.254;2023-02-23T02:41:12;6.85;;;2.65;;
74620;SDS011;64861;47.546;19.254;2023-02-23T02:43:48;5.83;;;2.33;;
74620;SDS011;64861;47.546;19.254;2023-02-23T02:46:23;6.55;;;2.38;;
74620;SDS011;64861;47.546;19.254;2023-02-23T02:49:04;6.90;;;2.30;;
74620;SDS011;64861;47.546;19.254;2023-02-23T02:51:40;5.50;;;2.20;;
74620;SDS011;64861;47.546;19.254;2023-02-23T02:54:26;4.88;;;2.10;;
74620;SDS011;64861;47.546;19.254;2023-02-23T02:56:58;5.90;;;2.20;;
74620;SDS011;64861;47.546;19.254;2023-02-23T02:59:28;5.65;;;2.20;;
74620;SDS011;64861;47.546;19.254;2023-02-23T03:02:17;5.82;;;2.45;;
74620;SDS011;64861;47.546;19.254;2023-02-23T03:05:16;7.25;;;2.65;;
74620;SDS011;64861;47.546;19.254;2023-02-23T03:08:06;6.00;;;2.30;;
74620;SDS011;64861;47.546;19.254;2023-02-23T03:11:03;6.00;;;2.30;;
74620;SDS011;64861;47.546;19.254;2023-02-23T03:23:34;5.78;;;2.30;;
74620;SDS011;64861;47.546;19.254;2023-02-23T03:26:28;6.30;;;2.40;;
74620;SDS011;64861;47.546;19.254;2023-02-23T03:35:08;6.70;;;2.15;;
74620;SDS011;64861;47.546;19.254;2023-02-23T03:38:15;4.60;;;2.10;;
74620;SDS011;64861;47.546;19.254;2023-02-23T03:41:04;5.78;;;2.00;;
74620;SDS011;64861;47.546;19.254;2023-02-23T03:43:55;5.97;;;1.90;;
74620;SDS011;64861;47.546;19.254;2023-02-23T03:46:43;6.35;;;2.20;;
74620;SDS011;64861;47.546;19.254;2023-02-23T03:49:31;5.68;;;2.13;;
74620;SDS011;64861;47.546;19.254;2023-02-23T03:52:19;5.15;;;1.92;;
74620;SDS011;64861;47.546;19.254;2023-02-23T03:55:16;5.13;;;2.13;;
74620;SDS011;64861;47.546;19.254;2023-02-23T03:58:04;4.93;;;1.95;;
74620;SDS011;64861;47.546;19.254;2023-02-23T04:00:51;7.72;;;2.35;;
74620;SDS011;64861;47.546;19.254;2023-02-23T04:03:39;6.35;;;2.20;;
74620;SDS011;64861;47.546;19.254;2023-02-23T04:06:27;5.72;;;2.20;;
74620;SDS011;64861;47.546;19.254;2023-02-23T04:09:17;5.38;;;2.10;;
74620;SDS011;64861;47.546;19.254;2023-02-23T04:12:04;4.95;;;2.08;;
74620;SDS011;64861;47.546;19.254;2023-02-23T04:17:42;5.63;;;2.33;;
74620;SDS011;64861;47.546;19.254;2023-02-23T04:20:09;5.28;;;2.25;;
74620;SDS011;64861;47.546;19.254;2023-02-23T04:22:37;5.18;;;2.17;;
74620;SDS011;64861;47.546;19.254;2023-02-23T04:25:03;6.50;;;2.63;;
74620;SDS011;64861;47.546;19.254;2023-02-23T04:27:33;4.03;;;1.90;;
74620;SDS011;64861;47.546;19.254;2023-02-23T04:29:59;7.00;;;2.45;;
74620;SDS011;64861;47.546;19.254;2023-02-23T04:32:27;5.32;;;1.85;;
74620;SDS011;64861;47.546;19.254;2023-02-23T04:34:54;5.95;;;2.35;;
74620;SDS011;64861;47.546;19.254;2023-02-23T04:37:19;6.03;;;2.20;;
74620;SDS011;64861;47.546;19.254;2023-02-23T04:39:45;6.15;;;2.38;;
74620;SDS011;64861;47.546;19.254;2023-02-23T04:42:14;7.50;;;2.42;;
74620;SDS011;64861;47.546;19.254;2023-02-23T04:44:43;7.00;;;2.65;;
74620;SDS011;64861;47.546;19.254;2023-02-23T04:47:09;5.75;;;2.47;;
74620;SDS011;64861;47.546;19.254;2023-02-23T04:49:35;7.25;;;2.40;;
74620;SDS011;64861;47.546;19.254;2023-02-23T04:52:00;5.65;;;2.45;;
74620;SDS011;64861;47.546;19.254;2023-02-23T04:54:25;5.15;;;2.03;;
74620;SDS011;64861;47.546;19.254;2023-02-23T04:56:51;5.68;;;2.58;;
74620;SDS011;64861;47.546;19.254;2023-02-23T04:59:17;4.90;;;2.05;;
74620;SDS011;64861;47.546;19.254;2023-02-23T05:01:42;6.10;;;2.13;;
74620;SDS011;64861;47.546;19.254;2023-02-23T05:04:08;5.22;;;1.83;;
74620;SDS011;64861;47.546;19.254;2023-02-23T05:06:34;4.80;;;2.08;;
74620;SDS011;64861;47.546;19.254;2023-02-23T05:08:59;6.07;;;2.30;;
74620;SDS011;64861;47.546;19.254;2023-02-23T05:11:27;5.40;;;2.03;;
74620;SDS011;64861;47.546;19.254;2023-02-23T05:13:53;6.70;;;2.22;;
74620;SDS011;64861;47.546;19.254;2023-02-23T05:16:19;6.68;;;2.03;;
74620;SDS011;64861;47.546;19.254;2023-02-23T05:18:45;5.63;;;1.92;;
74620;SDS011;64861;47.546;19.254;2023-02-23T05:21:11;5.55;;;2.10;;
74620;SDS011;64861;47.546;19.254;2023-02-23T05:23:37;5.03;;;1.80;;
74620;SDS011;64861;47.546;19.254;2023-02-23T05:26:04;5.97;;;2.13;;
74620;SDS011;64861;47.546;19.254;2023-02-23T05:28:32;6.85;;;2.30;;
74620;SDS011;64861;47.546;19.254;2023-02-23T05:30:59;5.45;;;2.17;;
74620;SDS011;64861;47.546;19.254;2023-02-23T05:33:25;6.00;;;2.00;;
74620;SDS011;64861;47.546;19.254;2023-02-23T05:35:50;6.00;;;2.42;;
74620;SDS011;64861;47.546;19.254;2023-02-23T05:38:16;5.95;;;2.17;;
74620;SDS011;64861;47.546;19.254;2023-02-23T05:40:42;6.35;;;2.30;;
74620;SDS011;64861;47.546;19.254;2023-02-23T05:43:07;7.88;;;2.17;;
74620;SDS011;64861;47.546;19.254;2023-02-23T05:45:33;5.85;;;2.50;;
74620;SDS011;64861;47.546;19.254;2023-02-23T05:47:58;5.18;;;2.00;;
74620;SDS011;64861;47.546;19.254;2023-02-23T05:50:24;6.10;;;2.42;;
74620;SDS011;64861;47.546;19.254;2023-02-23T05:52:50;4.45;;;1.88;;
74620;SDS011;64861;47.546;19.254;2023-02-23T05:55:16;5.68;;;2.00;;
74620;SDS011;64861;47.546;19.254;2023-02-23T05:57:41;4.63;;;2.08;;
74620;SDS011;64861;47.546;19.254;2023-02-23T06:00:09;4.78;;;2.15;;
74620;SDS011;64861;47.546;19.254;2023-02-23T06:02:35;7.28;;;2.15;;
74620;SDS011;64861;47.546;19.254;2023-02-23T06:05:00;4.70;;;2.05;;
74620;SDS011;64861;47.546;19.254;2023-02-23T06:07:26;5.15;;;2.17;;
74620;SDS011;64861;47.546;19.254;2023-02-23T06:09:52;5.25;;;2.03;;
74620;SDS011;64861;47.546;19.254;2023-02-23T06:12:17;7.90;;;2.22;;
74620;SDS011;64861;47.546;19.254;2023-02-23T06:14:43;4.93;;;2.00;;
74620;SDS011;64861;47.546;19.254;2023-02-23T06:17:08;4.72;;;2.17;;
74620;SDS011;64861;47.546;19.254;2023-02-23T06:19:34;5.85;;;2.13;;
74620;SDS011;64861;47.546;19.254;2023-02-23T06:21:59;5.50;;;2.28;;
74620;SDS011;64861;47.546;19.254;2023-02-23T06:24:25;7.22;;;2.15;;
74620;SDS011;64861;47.546;19.254;2023-02-23T06:26:50;5.53;;;2.28;;
74620;SDS011;64861;47.546;19.254;2023-02-23T06:29:16;6.13;;;2.38;;
74620;SDS011;64861;47.546;19.254;2023-02-23T06:31:41;4.63;;;2.10;;
74620;SDS011;64861;47.546;19.254;2023-02-23T06:34:07;5.05;;;2.08;;
74620;SDS011;64861;47.546;19.254;2023-02-23T06:36:34;5.40;;;2.30;;
74620;SDS011;64861;47.546;19.254;2023-02-23T06:39:00;6.63;;;2.00;;
74620;SDS011;64861;47.546;19.254;2023-02-23T06:41:26;7.07;;;2.42;;
74620;SDS011;64861;47.546;19.254;2023-02-23T06:43:51;4.65;;;1.95;;
74620;SDS011;64861;47.546;19.254;2023-02-23T06:46:17;5.80;;;1.92;;
74620;SDS011;64861;47.546;19.254;2023-02-23T06:48:43;8.15;;;1.98;;
74620;SDS011;64861;47.546;19.254;2023-02-23T06:51:08;5.38;;;1.77;;
74620;SDS011;64861;47.546;19.254;2023-02-23T06:53:34;6.35;;;1.95;;
74620;SDS011;64861;47.546;19.254;2023-02-23T06:56:00;5.85;;;2.05;;
74620;SDS011;64861;47.546;19.254;2023-02-23T06:58:27;5.18;;;1.98;;
74620;SDS011;64861;47.546;19.254;2023-02-23T07:00:56;4.47;;;1.80;;
74620;SDS011;64861;47.546;19.254;2023-02-23T07:03:23;5.47;;;2.08;;
74620;SDS011;64861;47.546;19.254;2023-02-23T07:05:49;6.20;;;2.63;;
74620;SDS011;64861;47.546;19.254;2023-02-23T07:08:16;4.47;;;1.92;;
74620;SDS011;64861;47.546;19.254;2023-02-23T07:10:42;4.28;;;1.83;;
74620;SDS011;64861;47.546;19.254;2023-02-23T07:13:08;5.65;;;2.10;;
74620;SDS011;64861;47.546;19.254;2023-02-23T07:15:35;5.55;;;2.08;;
74620;SDS011;64861;47.546;19.254;2023-02-23T07:18:01;6.35;;;1.98;;
74620;SDS011;64861;47.546;19.254;2023-02-23T07:20:26;4.63;;;2.08;;
74620;SDS011;64861;47.546;19.254;2023-02-23T07:22:52;7.20;;;1.90;;
74620;SDS011;64861;47.546;19.254;2023-02-23T07:25:19;5.57;;;2.10;;
74620;SDS011;64861;47.546;19.254;2023-02-23T07:27:44;4.57;;;1.88;;
74620;SDS011;64861;47.546;19.254;2023-02-23T07:30:10;4.82;;;2.20;;
74620;SDS011;64861;47.546;19.254;2023-02-23T07:32:37;5.18;;;2.00;;
74620;SDS011;64861;47.546;19.254;2023-02-23T07:35:03;7.30;;;2.50;;
74620;SDS011;64861;47.546;19.254;2023-02-23T07:37:30;8.77;;;2.45;;
74620;SDS011;64861;47.546;19.254;2023-02-23T07:39:55;5.30;;;2.40;;
74620;SDS011;64861;47.546;19.254;2023-02-23T07:42:21;5.22;;;2.30;;
74620;SDS011;64861;47.546;19.254;2023-02-23T07:44:46;7.10;;;2.38;;
74620;SDS011;64861;47.546;19.254;2023-02-23T07:47:11;7.40;;;2.25;;
74620;SDS011;64861;47.546;19.254;2023-02-23T07:49:37;5.20;;;2.30;;
74620;SDS011;64861;47.546;19.254;2023-02-23T07:52:02;8.57;;;2.20;;
74620;SDS011;64861;47.546;19.254;2023-02-23T07:54:28;8.38;;;2.28;;
74620;SDS011;64861;47.546;19.254;2023-02-23T07:56:53;6.10;;;2.10;;
74620;SDS011;64861;47.546;19.254;2023-02-23T07:59:19;5.07;;;2.00;;
74620;SDS011;64861;47.546;19.254;2023-02-23T08:01:45;8.27;;;2.70;;
74620;SDS011;64861;47.546;19.254;2023-02-23T08:04:10;5.50;;;1.83;;
74620;SDS011;64861;47.546;19.254;2023-02-23T08:06:36;6.10;;;2.45;;
74620;SDS011;64861;47.546;19.254;2023-02-23T08:09:02;8.63;;;2.00;;
74620;SDS011;64861;47.546;19.254;2023-02-23T08:11:29;7.13;;;2.45;;
74620;SDS011;64861;47.546;19.254;2023-02-23T08:13:55;4.40;;;2.03;;
74620;SDS011;64861;47.546;19.254;2023-02-23T08:16:27;5.55;;;2.10;;
74620;SDS011;64861;47.546;19.254;2023-02-23T08:18:53;6.38;;;2.10;;
74620;SDS011;64861;47.546;19.254;2023-02-23T08:21:22;5.15;;;2.15;;
74620;SDS011;64861;47.546;19.254;2023-02-23T08:23:48;5.38;;;2.00;;
74620;SDS011;64861;47.546;19.254;2023-02-23T08:26:13;7.38;;;2.13;;
74620;SDS011;64861;47.546;19.254;2023-02-23T08:28:39;8.95;;;2.05;;
74620;SDS011;64861;47.546;19.254;2023-02-23T08:31:09;6.97;;;2.42;;
74620;SDS011;64861;47.546;19.254;2023-02-23T08:33:35;5.22;;;2.08;;
74620;SDS011;64861;47.546;19.254;2023-02-23T08:36:02;8.75;;;2.47;;
74620;SDS011;64861;47.546;19.254;2023-02-23T08:38:28;7.60;;;2.22;;
74620;SDS011;64861;47.546;19.254;2023-02-23T08:40:54;9.45;;;2.25;;
74620;SDS011;64861;47.546;19.254;2023-02-23T08:43:19;6.35;;;2.55;;
74620;SDS011;64861;47.546;19.254;2023-02-23T08:45:44;9.32;;;3.63;;
74620;SDS011;64861;47.546;19.254;2023-02-23T08:48:10;6.40;;;3.20;;
74620;SDS011;64861;47.546;19.254;2023-02-23T08:50:35;6.03;;;3.20;;
74620;SDS011;64861;47.546;19.254;2023-02-23T08:53:01;6.13;;;2.88;;
74620;SDS011;64861;47.546;19.254;2023-02-23T08:55:28;11.18;;;3.03;;
74620;SDS011;64861;47.546;19.254;2023-02-23T08:57:53;10.70;;;3.47;;
74620;SDS011;64861;47.546;19.254;2023-02-23T09:00:19;9.65;;;3.40;;
74620;SDS011;64861;47.546;19.254;2023-02-23T09:02:45;9.30;;;3.63;;
74620;SDS011;64861;47.546;19.254;2023-02-23T09:05:13;7.38;;;3.45;;
74620;SDS011;64861;47.546;19.254;2023-02-23T09:07:39;7.40;;;2.88;;
74620;SDS011;64861;47.546;19.254;2023-02-23T09:10:10;8.27;;;3.20;;
74620;SDS011;64861;47.546;19.254;2023-02-23T09:12:37;11.38;;;3.40;;
74620;SDS011;64861;47.546;19.254;2023-02-23T09:15:03;10.65;;;3.72;;
74620;SDS011;64861;47.546;19.254;2023-02-23T09:17:29;11.40;;;3.97;;
74620;SDS011;64861;47.546;19.254;2023-02-23T09:19:54;15.50;;;3.22;;
74620;SDS011;64861;47.546;19.254;2023-02-23T09:22:19;15.75;;;3.13;;
74620;SDS011;64861;47.546;19.254;2023-02-23T09:24:45;8.75;;;3.50;;
74620;SDS011;64861;47.546;19.254;2023-02-23T09:27:10;11.63;;;3.55;;
74620;SDS011;64861;47.546;19.254;2023-02-23T09:29:37;12.05;;;3.40;;
74620;SDS011;64861;47.546;19.254;2023-02-23T09:32:06;12.23;;;3.47;;
74620;SDS011;64861;47.546;19.254;2023-02-23T09:34:32;8.25;;;3.25;;
74620;SDS011;64861;47.546;19.254;2023-02-23T09:36:57;8.02;;;3.10;;
74620;SDS011;64861;47.546;19.254;2023-02-23T09:39:24;12.00;;;3.55;;
74620;SDS011;64861;47.546;19.254;2023-02-23T09:46:51;8.45;;;3.10;;
74620;SDS011;64861;47.546;19.254;2023-02-23T09:49:43;6.88;;;3.30;;
74620;SDS011;64861;47.546;19.254;2023-02-23T09:52:15;9.23;;;3.30;;
74620;SDS011;64861;47.546;19.254;2023-02-23T09:54:44;14.20;;;3.78;;
74620;SDS011;64861;47.546;19.254;2023-02-23T09:57:11;9.23;;;3.33;;
74620;SDS011;64861;47.546;19.254;2023-02-23T09:59:40;10.27;;;3.00;;
74620;SDS011;64861;47.546;19.254;2023-02-23T10:04:44;9.93;;;3.20;;
74620;SDS011;64861;47.546;19.254;2023-02-23T10:12:34;9.25;;;3.22;;
74620;SDS011;64861;47.546;19.254;2023-02-23T10:20:40;9.27;;;2.92;;
74620;SDS011;64861;47.546;19.254;2023-02-23T10:23:16;9.25;;;3.33;;
74620;SDS011;64861;47.546;19.254;2023-02-23T10:25:48;11.13;;;3.13;;
74620;SDS011;64861;47.546;19.254;2023-02-23T10:28:17;7.93;;;3.00;;
74620;SDS011;64861;47.546;19.254;2023-02-23T10:30:45;8.80;;;3.10;;
74620;SDS011;64861;47.546;19.254;2023-02-23T10:33:33;11.13;;;3.15;;
74620;SDS011;64861;47.546;19.254;2023-02-23T10:36:16;8.35;;;2.90;;
74620;SDS011;64861;47.546;19.254;2023-02-23T10:38:44;7.93;;;3.05;;
74620;SDS011;64861;47.546;19.254;2023-02-23T10:41:10;7.28;;;2.60;;
74620;SDS011;64861;47.546;19.254;2023-02-23T10:43:37;9.98;;;3.22;;
74620;SDS011;64861;47.546;19.254;2023-02-23T10:46:03;8.13;;;2.47;;
74620;SDS011;64861;47.546;19.254;2023-02-23T10:48:33;10.15;;;2.88;;
74620;SDS011;64861;47.546;19.254;2023-02-23T10:51:05;10.05;;;2.85;;
74620;SDS011;64861;47.546;19.254;2023-02-23T10:53:35;7.18;;;2.60;;
74620;SDS011;64861;47.546;19.254;2023-02-23T10:56:05;7.38;;;2.45;;
74620;SDS011;64861;47.546;19.254;2023-02-23T10:58:54;8.85;;;2.63;;
74620;SDS011;64861;47.546;19.254;2023-02-23T11:09:40;8.95;;;2.65;;
74620;SDS011;64861;47.546;19.254;2023-02-23T11:12:16;7.38;;;2.72;;
74620;SDS011;64861;47.546;19.254;2023-02-23T11:14:54;7.10;;;2.47;;
74620;SDS011;64861;47.546;19.254;2023-02-23T11:17:22;6.85;;;2.28;;
74620;SDS011;64861;47.546;19.254;2023-02-23T11:20:00;6.65;;;2.50;;
74620;SDS011;64861;47.546;19.254;2023-02-23T11:22:40;8.48;;;2.80;;
74620;SDS011;64861;47.546;19.254;2023-02-23T11:25:26;9.85;;;2.88;;
74620;SDS011;64861;47.546;19.254;2023-02-23T11:27:53;11.10;;;2.90;;
74620;SDS011;64861;47.546;19.254;2023-02-23T11:30:24;11.68;;;3.05;;
74620;SDS011;64861;47.546;19.254;2023-02-23T11:32:57;18.23;;;3.30;;
74620;SDS011;64861;47.546;19.254;2023-02-23T11:35:33;17.98;;;3.33;;
74620;SDS011;64861;47.546;19.254;2023-02-23T11:38:05;13.93;;;3.40;;
74620;SDS011;64861;47.546;19.254;2023-02-23T11:41:04;17.92;;;2.90;;
74620;SDS011;64861;47.546;19.254;2023-02-23T11:43:46;21.92;;;3.88;;
74620;SDS011;64861;47.546;19.254;2023-02-23T11:46:12;21.05;;;3.90;;
74620;SDS011;64861;47.546;19.254;2023-02-23T11:51:25;21.58;;;3.67;;
74620;SDS011;64861;47.546;19.254;2023-02-23T11:53:54;27.30;;;4.13;;
74620;SDS011;64861;47.546;19.254;2023-02-23T11:56:21;17.58;;;3.70;;
74620;SDS011;64861;47.546;19.254;2023-02-23T11:58:50;18.42;;;3.53;;
74620;SDS011;64861;47.546;19.254;2023-02-23T12:01:20;25.65;;;4.28;;
74620;SDS011;64861;47.546;19.254;2023-02-23T12:09:43;12.57;;;3.58;;
74620;SDS011;64861;47.546;19.254;2023-02-23T12:12:13;13.88;;;3.28;;
74620;SDS011;64861;47.546;19.254;2023-02-23T12:14:47;13.38;;;3.40;;
74620;SDS011;64861;47.546;19.254;2023-02-23T12:17:18;16.27;;;3.60;;
74620;SDS011;64861;47.546;19.254;2023-02-23T12:19:57;15.98;;;2.92;;
74620;SDS011;64861;47.546;19.254;2023-02-23T12:22:29;15.88;;;3.13;;
74620;SDS011;64861;47.546;19.254;2023-02-23T12:25:03;16.10;;;7.05;;
74620;SDS011;64861;47.546;19.254;2023-02-23T12:30:26;21.65;;;7.40;;
74620;SDS011;64861;47.546;19.254;2023-02-23T12:33:10;17.63;;;6.40;;
74620;SDS011;64861;47.546;19.254;2023-02-23T12:35:53;18.33;;;7.35;;
74620;SDS011;64861;47.546;19.254;2023-02-23T12:38:28;18.13;;;6.55;;
74620;SDS011;64861;47.546;19.254;2023-02-23T12:41:10;18.25;;;5.90;;
74620;SDS011;64861;47.546;19.254;2023-02-23T12:43:39;16.35;;;5.45;;
74620;SDS011;64861;47.546;19.254;2023-02-23T12:46:49;13.18;;;5.65;;
74620;SDS011;64861;47.546;19.254;2023-02-23T12:49:02;13.02;;;4.55;;
74620;SDS011;64861;47.546;19.254;2023-02-23T12:51:54;13.80;;;5.55;;
74620;SDS011;64861;47.546;19.254;2023-02-23T12:54:34;13.95;;;5.10;;
74620;SDS011;64861;47.546;19.254;2023-02-23T13:05:04;12.13;;;4.50;;
74620;SDS011;64861;47.546;19.254;2023-02-23T13:10:41;12.52;;;4.22;;
74620;SDS011;64861;47.546;19.254;2023-02-23T13:18:37;12.32;;;4.57;;
74620;SDS011;64861;47.546;19.254;2023-02-23T13:21:21;17.25;;;4.90;;
74620;SDS011;64861;47.546;19.254;2023-02-23T13:32:04;22.67;;;5.65;;
74620;SDS011;64861;47.546;19.254;2023-02-23T13:34:58;19.27;;;5.47;;
74620;SDS011;64861;47.546;19.254;2023-02-23T13:43:17;17.63;;;4.60;;
74620;SDS011;64861;47.546;19.254;2023-02-23T13:45:54;35.25;;;6.13;;
74620;SDS011;64861;47.546;19.254;2023-02-23T13:56:22;21.35;;;4.63;;
74620;SDS011;64861;47.546;19.254;2023-02-23T14:01:35;17.45;;;4.43;;
74620;SDS011;64861;47.546;19.254;2023-02-23T14:04:03;16.98;;;5.00;;
74620;SDS011;64861;47.546;19.254;2023-02-23T14:06:36;17.67;;;4.82;;
74620;SDS011;64861;47.546;19.254;2023-02-23T14:09:11;15.23;;;4.30;;
74620;SDS011;64861;47.546;19.254;2023-02-23T14:11:52;17.23;;;3.85;;
74620;SDS011;64861;47.546;19.254;2023-02-23T14:14:43;14.65;;;4.35;;
74620;SDS011;64861;47.546;19.254;2023-02-23T14:19:43;14.88;;;4.47;;
74620;SDS011;64861;47.546;19.254;2023-02-23T14:22:20;12.77;;;4.22;;
74620;SDS011;64861;47.546;19.254;2023-02-23T14:24:57;17.55;;;4.68;;
74620;SDS011;64861;47.546;19.254;2023-02-23T14:27:52;22.50;;;4.75;;
74620;SDS011;64861;47.546;19.254;2023-02-23T14:30:26;14.75;;;4.07;;
74620;SDS011;64861;47.546;19.254;2023-02-23T14:32:54;14.07;;;3.67;;
74620;SDS011;64861;47.546;19.254;2023-02-23T14:38:30;17.63;;;3.90;;
74620;SDS011;64861;47.546;19.254;2023-02-23T14:41:01;13.88;;;3.80;;
74620;SDS011;64861;47.546;19.254;2023-02-23T14:46:11;14.23;;;3.58;;
74620;SDS011;64861;47.546;19.254;2023-02-23T14:48:43;12.52;;;3.70;;
74620;SDS011;64861;47.546;19.254;2023-02-23T14:51:24;18.38;;;3.83;;
74620;SDS011;64861;47.546;19.254;2023-02-23T14:57:05;16.73;;;4.20;;
74620;SDS011;64861;47.546;19.254;2023-02-23T14:59:43;9.52;;;3.35;;
74620;SDS011;64861;47.546;19.254;2023-02-23T15:02:15;10.80;;;3.40;;
74620;SDS011;64861;47.546;19.254;2023-02-23T15:04:41;13.40;;;4.25;;
74620;SDS011;64861;47.546;19.254;2023-02-23T15:07:30;14.30;;;4.03;;
74620;SDS011;64861;47.546;19.254;2023-02-23T15:09:59;15.85;;;3.67;;
74620;SDS011;64861;47.546;19.254;2023-02-23T15:12:27;12.18;;;4.13;;
74620;SDS011;64861;47.546;19.254;2023-02-23T15:14:59;14.57;;;3.28;;
74620;SDS011;64861;47.546;19.254;2023-02-23T15:17:27;10.13;;;3.30;;
74620;SDS011;64861;47.546;19.254;2023-02-23T15:19:59;10.93;;;3.95;;
74620;SDS011;64861;47.546;19.254;2023-02-23T15:25:00;11.85;;;3.42;;
74620;SDS011;64861;47.546;19.254;2023-02-23T15:27:40;12.32;;;3.78;;
74620;SDS011;64861;47.546;19.254;2023-02-23T15:30:20;13.82;;;3.63;;
74620;SDS011;64861;47.546;19.254;2023-02-23T15:32:45;8.60;;;3.40;;
74620;SDS011;64861;47.546;19.254;2023-02-23T15:35:11;11.88;;;3.88;;
74620;SDS011;64861;47.546;19.254;2023-02-23T15:37:39;11.85;;;3.65;;
74620;SDS011;64861;47.546;19.254;2023-02-23T15:40:05;13.85;;;3.47;;
74620;SDS011;64861;47.546;19.254;2023-02-23T15:42:40;9.93;;;3.47;;
74620;SDS011;64861;47.546;19.254;2023-02-23T15:45:21;12.85;;;3.63;;
74620;SDS011;64861;47.546;19.254;2023-02-23T15:47:53;9.05;;;3.60;;
74620;SDS011;64861;47.546;19.254;2023-02-23T15:50:21;12.02;;;4.03;;
74620;SDS011;64861;47.546;19.254;2023-02-23T15:52:56;10.50;;;3.50;;
74620;SDS011;64861;47.546;19.254;2023-02-23T15:55:34;11.77;;;3.78;;
74620;SDS011;64861;47.546;19.254;2023-02-23T15:58:09;13.25;;;3.90;;
74620;SDS011;64861;47.546;19.254;2023-02-23T16:00:41;14.18;;;3.88;;
74620;SDS011;64861;47.546;19.254;2023-02-23T16:03:22;13.35;;;3.95;;
74620;SDS011;64861;47.546;19.254;2023-02-23T16:05:58;10.82;;;3.80;;
74620;SDS011;64861;47.546;19.254;2023-02-23T16:08:24;11.50;;;4.03;;
74620;SDS011;64861;47.546;19.254;2023-02-23T16:11:01;11.93;;;3.55;;
74620;SDS011;64861;47.546;19.254;2023-02-23T16:13:37;18.48;;;4.03;;
74620;SDS011;64861;47.546;19.254;2023-02-23T16:16:07;21.27;;;4.53;;
74620;SDS011;64861;47.546;19.254;2023-02-23T16:18:38;9.43;;;3.85;;
74620;SDS011;64861;47.546;19.254;2023-02-23T16:21:06;14.52;;;3.60;;
74620;SDS011;64861;47.546;19.254;2023-02-23T17:41:27;49.05;;;24.60;;
74620;SDS011;64861;47.546;19.254;2023-02-23T17:43:53;45.17;;;21.60;;
74620;SDS011;64861;47.546;19.254;2023-02-23T17:46:18;40.50;;;20.20;;
74620;SDS011;64861;47.546;19.254;2023-02-23T17:48:44;44.70;;;18.25;;
74620;SDS011;64861;47.546;19.254;2023-02-23T17:51:11;42.28;;;19.10;;
74620;SDS011;64861;47.546;19.254;2023-02-23T17:53:40;39.67;;;17.88;;
74620;SDS011;64861;47.546;19.254;2023-02-23T17:56:06;35.03;;;16.92;;
74620;SDS011;64861;47.546;19.254;2023-02-23T17:58:33;32.53;;;15.30;;
74620;SDS011;64861;47.546;19.254;2023-02-23T18:01:00;32.50;;;15.10;;
74620;SDS011;64861;47.546;19.254;2023-02-23T18:03:28;27.52;;;13.85;;
74620;SDS011;64861;47.546;19.254;2023-02-23T18:06:00;30.35;;;14.32;;
74620;SDS011;64861;47.546;19.254;2023-02-23T18:08:30;29.75;;;13.52;;
74620;SDS011;64861;47.546;19.254;2023-02-23T18:10:55;33.15;;;13.65;;
74620;SDS011;64861;47.546;19.254;2023-02-23T18:13:21;30.08;;;13.50;;
74620;SDS011;64861;47.546;19.254;2023-02-23T18:15:49;37.72;;;14.60;;
74620;SDS011;64861;47.546;19.254;2023-02-23T18:18:16;33.67;;;13.95;;
74620;SDS011;64861;47.546;19.254;2023-02-23T18:20:52;32.72;;;13.45;;